createdAt,value
2023-03-06T00:00:18.148Z,1.99
2023-03-06T00:02:45.668Z,1.99
2023-03-06T00:05:16.032Z,1.98
2023-03-06T00:07:43.945Z,2.02
2023-03-06T00:10:15.866Z,2.04
2023-03-06T00:12:43.422Z,2.07
2023-03-06T00:15:11.112Z,2.02
2023-03-06T00:17:38.974Z,2.02
2023-03-06T00:20:06.916Z,1.99
2023-03-06T00:22:34.520Z,1.99
2023-03-06T00:25:02.054Z,2.00
2023-03-06T00:27:30.496Z,2.19
2023-03-06T00:29:58.414Z,2.24
2023-03-06T00:32:26.402Z,2.14
2023-03-06T00:34:54.002Z,2.11
2023-03-06T00:37:22.138Z,2.08
2023-03-06T00:39:49.813Z,2.08
2023-03-06T00:42:17.534Z,2.03
2023-03-06T00:44:44.887Z,2.02
2023-03-06T00:47:12.569Z,2.04
2023-03-06T00:49:39.797Z,2.09
2023-03-06T00:52:07.258Z,2.08
2023-03-06T00:54:34.767Z,2.13
2023-03-06T00:57:02.024Z,2.09
2023-03-06T00:59:29.229Z,2.07
2023-03-06T01:01:57.374Z,2.11
2023-03-06T01:04:24.634Z,2.14
2023-03-06T01:06:51.896Z,2.11
2023-03-06T01:09:19.474Z,2.12
2023-03-06T01:11:46.726Z,2.20
2023-03-06T01:14:13.975Z,2.29
2023-03-06T01:16:41.567Z,2.31
2023-03-06T01:19:10.024Z,2.33
2023-03-06T01:21:37.691Z,2.28
2023-03-06T01:24:05.294Z,2.26
2023-03-06T01:26:33.494Z,2.34
2023-03-06T01:29:00.984Z,2.38
2023-03-06T01:31:28.662Z,2.39
2023-03-06T01:33:55.989Z,2.32
2023-03-06T01:36:23.729Z,2.42
2023-03-06T01:38:51.289Z,2.38
2023-03-06T01:41:18.582Z,2.31
2023-03-06T01:43:47.434Z,2.33
2023-03-06T01:46:17.986Z,2.26
2023-03-06T01:48:45.283Z,2.28
2023-03-06T01:51:12.514Z,2.33
2023-03-06T01:53:40.086Z,2.35
2023-03-06T01:56:07.362Z,2.36
2023-03-06T01:58:34.680Z,2.35
2023-03-06T02:01:02.281Z,2.34
2023-03-06T02:03:30.747Z,2.34
2023-03-06T02:05:59.202Z,2.41
2023-03-06T02:08:26.439Z,2.40
2023-03-06T02:11:06.049Z,2.31
2023-03-06T02:13:33.318Z,2.30
2023-03-06T02:16:01.149Z,2.31
2023-03-06T02:18:28.865Z,2.29
2023-03-06T02:20:57.678Z,2.38
2023-03-06T02:23:25.521Z,2.36
2023-03-06T02:25:52.754Z,2.30
2023-03-06T02:28:21.015Z,2.29
2023-03-06T02:30:50.496Z,2.23
2023-03-06T02:33:18.681Z,2.30
2023-03-06T02:35:56.376Z,2.27
2023-03-06T02:38:25.493Z,2.27
2023-03-06T02:40:52.763Z,2.29
2023-03-06T02:43:24.741Z,2.30
2023-03-06T02:45:52.581Z,2.35
2023-03-06T02:48:20.414Z,2.27
2023-03-06T02:50:48.494Z,2.41
2023-03-06T02:53:17.561Z,2.38
2023-03-06T02:55:44.966Z,2.36
2023-03-06T02:58:12.217Z,2.42
2023-03-06T03:00:40.227Z,2.38
2023-03-06T03:03:08.255Z,2.39
2023-03-06T03:05:35.475Z,2.38
2023-03-06T03:08:04.249Z,2.41
2023-03-06T03:10:31.523Z,2.38
2023-03-06T03:12:59.023Z,2.31
2023-03-06T03:15:27.006Z,2.33
2023-03-06T03:17:54.281Z,2.33
2023-03-06T03:20:21.826Z,2.34
2023-03-06T03:22:51.608Z,2.38
2023-03-06T03:25:19.007Z,2.37
2023-03-06T03:27:46.324Z,2.35
2023-03-06T03:30:14.327Z,2.44
2023-03-06T03:32:42.938Z,2.45
2023-03-06T03:35:10.451Z,2.39
2023-03-06T03:37:38.115Z,2.42
2023-03-06T03:40:07.138Z,2.34
2023-03-06T03:42:34.543Z,2.34
2023-03-06T03:45:02.789Z,2.36
2023-03-06T03:47:30.243Z,2.37
2023-03-06T03:49:57.574Z,2.38
2023-03-06T03:52:25.342Z,2.31
2023-03-06T03:54:52.616Z,2.31
2023-03-06T03:57:20.016Z,2.36
2023-03-06T03:59:48.099Z,2.36
2023-03-06T04:02:16.091Z,2.34
2023-03-06T04:04:44.296Z,2.29
2023-03-06T04:07:12.809Z,2.33
2023-03-06T04:09:40.071Z,2.30
2023-03-06T04:12:08.274Z,2.34
2023-03-06T04:14:35.763Z,2.34
2023-03-06T04:17:03.451Z,2.34
2023-03-06T04:19:31.122Z,2.31
2023-03-06T04:21:58.646Z,2.19
2023-03-06T04:24:26.441Z,2.21
2023-03-06T04:26:54.065Z,2.26
2023-03-06T04:29:21.367Z,2.27
2023-03-06T04:31:48.718Z,2.30
2023-03-06T04:34:17.688Z,2.31
2023-03-06T04:36:46.153Z,2.19
2023-03-06T04:39:14.153Z,2.17
2023-03-06T04:41:42.143Z,2.23
2023-03-06T04:44:09.750Z,2.27
2023-03-06T04:46:37.040Z,2.28
2023-03-06T04:49:04.615Z,2.33
2023-03-06T04:51:31.857Z,2.33
2023-03-06T04:54:00.592Z,2.29
2023-03-06T04:56:28.111Z,2.33
2023-03-06T04:58:55.446Z,2.35
2023-03-06T05:01:22.828Z,2.37
2023-03-06T05:03:50.372Z,2.29
2023-03-06T05:06:17.742Z,2.30
2023-03-06T05:08:44.948Z,2.32
2023-03-06T05:11:13.132Z,2.35
2023-03-06T05:13:40.342Z,2.37
2023-03-06T05:16:08.014Z,2.31
2023-03-06T05:18:35.807Z,2.37
2023-03-06T05:21:03.765Z,2.39
2023-03-06T05:23:31.454Z,2.41
2023-03-06T05:25:59.166Z,2.41
2023-03-06T05:28:26.588Z,2.39
2023-03-06T05:30:53.810Z,2.44
2023-03-06T05:33:21.357Z,2.50
2023-03-06T05:35:48.877Z,2.58
2023-03-06T05:38:16.460Z,2.48
2023-03-06T05:40:44.783Z,2.43
2023-03-06T05:43:12.178Z,2.45
2023-03-06T05:45:39.991Z,2.41
2023-03-06T05:48:07.571Z,2.47
2023-03-06T05:50:34.821Z,2.53
2023-03-06T05:53:02.180Z,2.53
2023-03-06T05:55:30.217Z,2.50
2023-03-06T05:57:57.627Z,2.58
2023-03-06T06:00:25.212Z,2.62
2023-03-06T06:02:52.827Z,2.62
2023-03-06T06:05:20.094Z,2.59
2023-03-06T06:07:47.436Z,2.63
2023-03-06T06:10:15.278Z,2.62
2023-03-06T06:12:42.509Z,2.74
2023-03-06T06:15:10.102Z,2.79
2023-03-06T06:17:37.891Z,2.79
2023-03-06T06:20:05.335Z,2.85
2023-03-06T06:22:35.198Z,2.86
2023-03-06T06:25:03.048Z,2.89
2023-03-06T06:27:30.321Z,2.89
2023-03-06T06:29:57.874Z,2.93
2023-03-06T06:32:25.486Z,2.97
2023-03-06T06:34:52.791Z,3.00
2023-03-06T06:37:20.097Z,3.02
2023-03-06T06:39:47.636Z,3.02
2023-03-06T06:42:30.517Z,3.11
2023-03-06T06:45:00.555Z,3.04
2023-03-06T06:47:27.813Z,3.14
2023-03-06T06:49:55.504Z,3.27
2023-03-06T06:52:23.676Z,3.30
2023-03-06T06:54:51.377Z,3.37
2023-03-06T06:57:18.590Z,3.42
2023-03-06T06:59:46.114Z,3.37
2023-03-06T07:02:14.641Z,3.48
2023-03-06T07:04:56.171Z,3.54
2023-03-06T07:07:31.749Z,3.61
2023-03-06T07:09:59.982Z,3.68
2023-03-06T07:12:27.967Z,3.69
2023-03-06T07:14:56.002Z,3.75
2023-03-06T07:17:23.254Z,3.70
2023-03-06T07:19:50.540Z,3.81
2023-03-06T07:22:18.007Z,3.72
2023-03-06T07:24:45.196Z,3.55
2023-03-06T07:27:12.402Z,3.60
2023-03-06T07:29:42.044Z,3.63
2023-03-06T07:32:09.209Z,3.69
2023-03-06T07:34:36.371Z,3.50
2023-03-06T07:37:03.870Z,3.52
2023-03-06T07:39:32.007Z,3.61
2023-03-06T07:41:59.137Z,3.73
2023-03-06T07:44:26.785Z,3.80
2023-03-06T07:46:54.122Z,3.65
2023-03-06T07:49:21.974Z,3.88
2023-03-06T07:51:49.496Z,4.06
2023-03-06T07:54:17.018Z,4.24
2023-03-06T07:56:44.217Z,4.41
2023-03-06T07:59:11.889Z,4.64
2023-03-06T08:01:40.298Z,4.44
2023-03-06T08:04:07.899Z,4.49
2023-03-06T08:06:35.185Z,4.23
2023-03-06T08:09:02.691Z,4.17
2023-03-06T08:11:30.670Z,4.20
2023-03-06T08:13:58.126Z,4.28
2023-03-06T08:16:26.245Z,4.23
2023-03-06T08:18:54.046Z,4.18
2023-03-06T08:21:22.447Z,4.54
2023-03-06T08:23:49.679Z,4.53
2023-03-06T08:26:18.000Z,4.88
2023-03-06T08:28:45.274Z,5.03
2023-03-06T08:31:13.673Z,5.16
2023-03-06T08:33:43.774Z,5.10
2023-03-06T08:36:11.044Z,5.24
2023-03-06T08:38:38.924Z,5.44
2023-03-06T08:41:06.606Z,5.27
2023-03-06T08:43:35.795Z,5.33
2023-03-06T08:46:03.268Z,5.77
2023-03-06T08:48:31.013Z,5.87
2023-03-06T08:50:58.274Z,5.99
2023-03-06T08:53:40.289Z,6.35
2023-03-06T08:56:08.536Z,6.38
2023-03-06T08:58:35.768Z,5.89
2023-03-06T09:01:07.207Z,5.79
2023-03-06T09:03:34.895Z,5.90
2023-03-06T09:06:02.219Z,5.77
2023-03-06T09:08:29.489Z,5.71
2023-03-06T09:10:57.993Z,5.80
2023-03-06T09:13:25.940Z,5.45
2023-03-06T09:15:54.143Z,5.30
2023-03-06T09:18:21.733Z,5.45
2023-03-06T09:20:48.982Z,5.68
2023-03-06T09:23:16.254Z,6.07
2023-03-06T09:25:43.840Z,6.25
2023-03-06T09:28:12.443Z,6.28
2023-03-06T09:30:40.262Z,6.28
2023-03-06T09:33:08.194Z,6.68
2023-03-06T09:35:35.655Z,6.89
2023-03-06T09:38:02.995Z,7.32
2023-03-06T09:40:33.910Z,6.90
2023-03-06T09:43:01.218Z,6.69
2023-03-06T09:45:28.488Z,6.88
2023-03-06T09:48:00.754Z,6.62
2023-03-06T09:50:50.530Z,6.55
2023-03-06T09:53:36.567Z,6.73
2023-03-06T09:56:06.390Z,6.83
2023-03-06T09:58:34.888Z,6.55
2023-03-06T10:01:22.475Z,6.67
2023-03-06T10:04:12.990Z,6.60
2023-03-06T10:06:47.932Z,6.84
2023-03-06T10:09:18.527Z,6.85
2023-03-06T10:11:47.619Z,6.86
2023-03-06T10:14:20.407Z,6.71
2023-03-06T10:16:48.094Z,6.53
2023-03-06T10:19:16.930Z,6.44
2023-03-06T10:21:47.167Z,6.24
2023-03-06T10:24:34.233Z,6.20
2023-03-06T10:27:06.581Z,6.04
2023-03-06T10:29:39.125Z,6.01
2023-03-06T10:32:11.280Z,5.92
2023-03-06T10:34:39.669Z,6.08
2023-03-06T10:37:32.941Z,6.10
2023-03-06T10:40:08.807Z,6.16
2023-03-06T10:42:36.961Z,6.04
2023-03-06T10:45:14.243Z,6.13
2023-03-06T10:47:41.891Z,6.11
2023-03-06T10:50:28.931Z,6.27
2023-03-06T10:53:05.058Z,6.29
2023-03-06T10:55:36.112Z,6.29
2023-03-06T10:58:18.858Z,6.35
2023-03-06T11:00:46.458Z,6.48
2023-03-06T11:03:13.776Z,6.45
2023-03-06T11:05:41.050Z,6.39
2023-03-06T11:08:11.220Z,6.55
2023-03-06T11:10:38.543Z,6.37
2023-03-06T11:13:08.982Z,6.39
2023-03-06T11:15:36.556Z,6.35
2023-03-06T11:18:05.119Z,6.51
2023-03-06T11:20:51.404Z,6.46
2023-03-06T11:23:28.841Z,6.62
2023-03-06T11:26:02.953Z,6.51
2023-03-06T11:28:31.775Z,6.62
2023-03-06T11:30:59.296Z,6.62
2023-03-06T11:33:40.778Z,6.82
2023-03-06T11:36:09.700Z,6.57
2023-03-06T11:38:50.449Z,6.83
2023-03-06T11:41:29.281Z,7.00
2023-03-06T11:44:08.558Z,7.06
2023-03-06T11:46:44.340Z,6.83
2023-03-06T11:49:26.930Z,6.90
2023-03-06T11:51:55.883Z,7.06
2023-03-06T11:54:23.200Z,7.37
2023-03-06T11:56:57.918Z,7.57
2023-03-06T11:59:34.753Z,7.86
2023-03-06T12:02:14.385Z,7.92
2023-03-06T12:04:56.134Z,8.06
2023-03-06T12:07:26.663Z,8.41
2023-03-06T12:09:56.347Z,8.45
2023-03-06T12:12:29.650Z,8.16
2023-03-06T12:15:07.055Z,8.34
2023-03-06T12:17:39.798Z,8.09
2023-03-06T12:20:23.518Z,8.27
2023-03-06T12:22:57.580Z,8.56
2023-03-06T12:25:32.969Z,8.08
2023-03-06T12:28:19.211Z,7.91
2023-03-06T12:30:55.658Z,7.97
2023-03-06T12:33:25.319Z,8.12
2023-03-06T12:36:17.918Z,8.24
2023-03-06T12:38:47.499Z,8.11
2023-03-06T12:41:23.167Z,8.36
2023-03-06T12:43:50.425Z,8.55
2023-03-06T12:46:22.014Z,8.82
2023-03-06T12:49:02.151Z,8.82
2023-03-06T12:51:29.746Z,8.73
2023-03-06T12:53:57.578Z,8.93
2023-03-06T12:56:24.899Z,8.58
2023-03-06T12:58:53.826Z,8.52
2023-03-06T13:01:39.860Z,7.96
2023-03-06T13:04:25.792Z,7.97
2023-03-06T13:07:18.307Z,8.01
2023-03-06T13:10:04.926Z,7.57
2023-03-06T13:12:35.229Z,7.52
2023-03-06T13:15:22.995Z,7.71
2023-03-06T13:17:50.236Z,7.64
2023-03-06T13:20:18.497Z,7.71
2023-03-06T13:22:46.898Z,8.06
2023-03-06T13:25:17.240Z,8.27
2023-03-06T13:27:53.537Z,8.02
2023-03-06T13:30:21.027Z,8.01
2023-03-06T13:32:49.347Z,8.08
2023-03-06T13:35:36.594Z,8.09
2023-03-06T13:38:04.203Z,8.27
2023-03-06T13:40:35.021Z,8.41
2023-03-06T13:43:13.697Z,8.22
2023-03-06T13:45:43.274Z,8.21
2023-03-06T13:48:43.648Z,8.24
2023-03-06T13:51:24.712Z,8.45
2023-03-06T13:53:55.828Z,8.30
2023-03-06T13:56:46.737Z,8.30
2023-03-06T13:59:20.142Z,8.20
2023-03-06T14:02:03.016Z,8.41
2023-03-06T14:04:35.614Z,8.24
2023-03-06T14:07:06.263Z,8.27
2023-03-06T14:09:38.102Z,8.34
2023-03-06T14:12:07.309Z,8.44
2023-03-06T14:14:44.932Z,8.38
2023-03-06T14:17:15.407Z,8.30
2023-03-06T14:19:42.980Z,8.30
2023-03-06T14:22:14.781Z,8.47
2023-03-06T14:24:43.750Z,8.49
2023-03-06T14:27:18.794Z,8.41
2023-03-06T14:29:48.608Z,8.48
2023-03-06T14:32:16.714Z,8.56
2023-03-06T14:34:45.883Z,8.51
2023-03-06T14:37:20.049Z,8.53
2023-03-06T14:39:47.839Z,8.63
2023-03-06T14:42:19.051Z,8.52
2023-03-06T14:44:49.916Z,8.27
2023-03-06T14:47:21.544Z,8.16
2023-03-06T14:50:08.849Z,8.41
2023-03-06T14:52:36.406Z,8.34
2023-03-06T14:55:03.754Z,8.08
2023-03-06T14:57:31.032Z,8.23
2023-03-06T14:59:58.587Z,8.33
2023-03-06T15:02:26.579Z,8.45
2023-03-06T15:04:54.970Z,8.39
2023-03-06T15:07:23.313Z,8.54
2023-03-06T15:09:51.766Z,8.49
2023-03-06T15:12:19.824Z,8.38
2023-03-06T15:14:57.843Z,8.14
2023-03-06T15:17:28.144Z,8.21
2023-03-06T15:19:56.480Z,7.85
2023-03-06T15:22:28.867Z,7.64
2023-03-06T15:25:11.768Z,7.28
2023-03-06T15:27:39.033Z,7.32
2023-03-06T15:30:33.393Z,7.10
2023-03-06T15:33:10.023Z,6.96
2023-03-06T15:35:38.346Z,6.83
2023-03-06T15:38:21.408Z,6.83
2023-03-06T15:40:56.091Z,6.68
2023-03-06T15:43:23.316Z,6.48
2023-03-06T15:45:51.281Z,6.36
2023-03-06T15:48:18.635Z,6.19
2023-03-06T15:50:45.992Z,5.94
2023-03-06T15:53:15.566Z,5.93
2023-03-06T15:55:42.825Z,5.81
2023-03-06T15:58:10.112Z,5.75
2023-03-06T16:00:40.916Z,5.68
2023-03-06T16:03:11.739Z,5.60
2023-03-06T16:05:39.057Z,5.48
2023-03-06T16:08:06.460Z,5.41
2023-03-06T16:10:35.319Z,5.46
2023-03-06T16:13:06.740Z,5.37
2023-03-06T16:15:37.881Z,5.24
2023-03-06T16:18:06.217Z,5.19
2023-03-06T16:20:33.817Z,5.02
2023-03-06T16:23:01.150Z,4.98
2023-03-06T16:25:28.918Z,4.82
2023-03-06T16:27:59.977Z,4.79
2023-03-06T16:30:28.175Z,4.73
2023-03-06T16:32:55.509Z,4.78
2023-03-06T16:35:23.177Z,4.75
2023-03-06T16:37:50.809Z,4.77
2023-03-06T16:40:22.266Z,4.72
2023-03-06T16:42:50.157Z,4.67
2023-03-06T16:45:17.932Z,4.70
2023-03-06T16:47:45.751Z,4.65
2023-03-06T16:50:24.310Z,4.65
2023-03-06T16:52:52.391Z,4.62
2023-03-06T16:55:20.006Z,4.59
2023-03-06T16:57:47.228Z,4.59
2023-03-06T17:00:15.869Z,4.55
2023-03-06T17:02:43.486Z,4.49
2023-03-06T17:05:11.044Z,4.50
2023-03-06T17:07:38.697Z,4.41
2023-03-06T17:10:07.031Z,4.30
2023-03-06T17:12:34.533Z,4.15
2023-03-06T17:15:02.011Z,4.16
2023-03-06T17:17:29.606Z,4.09
2023-03-06T17:19:57.027Z,4.11
2023-03-06T17:22:24.316Z,4.12
2023-03-06T17:24:52.262Z,4.11
2023-03-06T17:27:21.214Z,4.17
2023-03-06T17:29:48.592Z,4.23
2023-03-06T17:32:16.222Z,4.11
2023-03-06T17:34:43.563Z,4.15
2023-03-06T17:37:10.876Z,4.14
2023-03-06T17:39:38.922Z,4.08
2023-03-06T17:42:06.618Z,3.89
2023-03-06T17:44:34.404Z,3.91
2023-03-06T17:47:02.378Z,3.93
2023-03-06T17:49:29.770Z,4.01
2023-03-06T17:51:58.055Z,3.97
2023-03-06T17:54:26.514Z,3.96
2023-03-06T17:56:53.753Z,3.89
2023-03-06T17:59:21.002Z,3.81
2023-03-06T18:01:48.564Z,3.79
2023-03-06T18:04:16.925Z,3.80
2023-03-06T18:06:44.178Z,3.87
2023-03-06T18:09:11.400Z,3.86
2023-03-06T18:11:39.061Z,3.89
2023-03-06T18:14:09.570Z,3.87
2023-03-06T18:16:36.840Z,3.76
2023-03-06T18:19:04.444Z,3.73
2023-03-06T18:21:31.743Z,3.69
2023-03-06T18:23:59.023Z,3.75
2023-03-06T18:26:27.310Z,3.70
2023-03-06T18:28:55.754Z,3.71
2023-03-06T18:31:25.890Z,3.60
2023-03-06T18:33:54.917Z,3.60
2023-03-06T18:36:25.877Z,3.66
2023-03-06T18:38:53.171Z,3.54
2023-03-06T18:41:20.944Z,3.65
2023-03-06T18:43:54.844Z,3.57
2023-03-06T18:46:22.448Z,3.59
2023-03-06T18:48:49.957Z,3.56
2023-03-06T18:51:17.829Z,3.51
2023-03-06T18:53:45.592Z,3.46
2023-03-06T18:56:17.749Z,3.47
2023-03-06T18:58:45.375Z,3.51
2023-03-06T19:01:12.668Z,3.58
2023-03-06T19:03:40.344Z,3.46
2023-03-06T19:06:09.168Z,3.38
2023-03-06T19:08:37.303Z,3.44
2023-03-06T19:11:05.815Z,3.57
2023-03-06T19:13:33.476Z,3.60
2023-03-06T19:16:01.016Z,3.55
2023-03-06T19:18:28.324Z,3.62
2023-03-06T19:20:56.647Z,3.67
2023-03-06T19:23:23.922Z,3.76
2023-03-06T19:25:58.166Z,3.75
2023-03-06T19:28:27.190Z,3.72
2023-03-06T19:30:54.476Z,3.69
2023-03-06T19:33:21.878Z,3.60
2023-03-06T19:35:49.442Z,3.70
2023-03-06T19:38:16.775Z,3.65
2023-03-06T19:40:50.206Z,3.61
2023-03-06T19:43:17.772Z,3.60
2023-03-06T19:45:45.080Z,3.60
2023-03-06T19:48:13.495Z,3.61
2023-03-06T19:50:41.055Z,3.56
2023-03-06T19:53:08.454Z,3.49
2023-03-06T19:55:35.782Z,3.55
2023-03-06T19:58:03.638Z,3.62
2023-03-06T20:00:30.942Z,3.61
2023-03-06T20:02:58.496Z,3.67
2023-03-06T20:05:25.849Z,3.69
2023-03-06T20:07:53.194Z,3.72
2023-03-06T20:10:20.733Z,3.81
2023-03-06T20:12:48.035Z,3.75
2023-03-06T20:15:15.306Z,3.71
2023-03-06T20:17:42.994Z,3.66
2023-03-06T20:20:10.844Z,3.60
2023-03-06T20:22:38.209Z,3.60
2023-03-06T20:25:05.944Z,3.62
2023-03-06T20:27:33.513Z,3.66
2023-03-06T20:30:01.150Z,3.75
2023-03-06T20:32:31.234Z,3.70
2023-03-06T20:34:58.454Z,3.60
2023-03-06T20:37:27.343Z,3.65
2023-03-06T20:39:54.890Z,3.53
2023-03-06T20:42:22.146Z,3.59
2023-03-06T20:44:49.369Z,3.49
2023-03-06T20:47:17.102Z,3.41
2023-03-06T20:49:44.360Z,3.42
2023-03-06T20:52:11.617Z,3.45
2023-03-06T20:54:39.602Z,3.39
2023-03-06T20:57:06.889Z,3.40
2023-03-06T20:59:34.176Z,3.40
2023-03-06T21:02:01.797Z,3.44
2023-03-06T21:04:29.095Z,3.43
2023-03-06T21:06:56.346Z,3.47
2023-03-06T21:09:23.879Z,3.47
2023-03-06T21:11:51.121Z,3.50
2023-03-06T21:14:18.411Z,3.51
2023-03-06T21:16:45.988Z,3.54
2023-03-06T21:19:13.266Z,3.60
2023-03-06T21:21:40.541Z,3.55
2023-03-06T21:24:08.108Z,3.57
2023-03-06T21:26:35.450Z,3.49
2023-03-06T21:29:02.695Z,3.49
2023-03-06T21:31:30.343Z,3.42
2023-03-06T21:33:58.666Z,3.38
2023-03-06T21:36:26.125Z,3.30
2023-03-06T21:38:53.756Z,3.20
2023-03-06T21:41:24.858Z,3.20
2023-03-06T21:43:56.096Z,3.18
2023-03-06T21:46:24.097Z,3.17
2023-03-06T21:48:51.506Z,3.23
2023-03-06T21:51:19.608Z,3.14
2023-03-06T21:53:47.721Z,3.15
2023-03-06T21:56:16.284Z,3.18
2023-03-06T21:58:43.809Z,3.10
2023-03-06T22:01:12.189Z,3.13
2023-03-06T22:03:39.843Z,3.07
2023-03-06T22:06:08.131Z,2.96
2023-03-06T22:08:35.360Z,2.99
2023-03-06T22:11:07.013Z,2.82
2023-03-06T22:13:34.240Z,2.75
2023-03-06T22:16:01.453Z,2.87
2023-03-06T22:18:29.001Z,2.83
2023-03-06T22:20:58.996Z,2.85
2023-03-06T22:23:26.272Z,2.92
2023-03-06T22:25:54.349Z,2.83
2023-03-06T22:28:21.656Z,2.81
2023-03-06T22:30:48.936Z,2.83
2023-03-06T22:33:16.453Z,2.75
2023-03-06T22:35:43.757Z,2.72
2023-03-06T22:38:11.058Z,2.62
2023-03-06T22:40:39.536Z,2.60
2023-03-06T22:43:06.762Z,2.63
2023-03-06T22:45:34.730Z,2.75
2023-03-06T22:48:10.365Z,2.75
2023-03-06T22:50:38.241Z,2.66
2023-03-06T22:53:05.758Z,2.69
2023-03-06T22:55:34.462Z,2.72
2023-03-06T22:58:01.700Z,2.70
2023-03-06T23:00:29.389Z,2.74
2023-03-06T23:02:56.530Z,2.75
2023-03-06T23:05:24.536Z,2.62
2023-03-06T23:07:52.138Z,2.37
2023-03-06T23:10:19.413Z,2.39
2023-03-06T23:13:05.679Z,2.45
2023-03-06T23:15:51.948Z,2.42
2023-03-06T23:18:38.026Z,2.17
2023-03-06T23:21:24.292Z,2.24
2023-03-06T23:24:09.786Z,2.26
2023-03-06T23:26:37.415Z,2.16
2023-03-06T23:29:04.636Z,2.03
2023-03-06T23:31:32.244Z,2.02
2023-03-06T23:34:00.805Z,2.00
2023-03-06T23:36:28.647Z,2.08
2023-03-06T23:38:55.893Z,2.17
2023-03-06T23:41:23.771Z,2.17
2023-03-06T23:43:51.997Z,2.15
2023-03-06T23:46:20.817Z,2.19
2023-03-06T23:48:48.407Z,2.24
2023-03-06T23:51:16.903Z,2.22
2023-03-06T23:53:44.843Z,2.23
2023-03-06T23:56:12.439Z,2.24
2023-03-06T23:58:39.734Z,2.31
